Time;durP1;ratioP1;P1;durP2;ratioP2;P2;SDS_P1;SDS_P2;PMS_P1;PMS_P2;Temp;Humidity;BMP_temperature;BMP_pressure;BME280_temperature;BME280_humidity;BME280_pressure;Samples;Min_cycle;Max_cycle;Signal;HPM_P1;HPM_P2
2023/07/07 00:02:10;;;;;;;4.10;2.83;;;;;;;17.01;67.90;98323.34;4994031;28;20214;-77
2023/07/07 00:04:37;;;;;;;3.23;2.67;;;;;;;17.02;67.46;98319.63;4994539;28;20210;-77
2023/07/07 00:07:04;;;;;;;3.17;2.73;;;;;;;17.11;66.66;98320.78;4994461;28;20302;-77
2023/07/07 00:09:31;;;;;;;2.80;2.50;;;;;;;17.04;67.13;98324.72;4994813;28;20297;-77
2023/07/07 00:11:57;;;;;;;3.47;3.03;;;;;;;17.20;67.36;98334.56;4995337;28;20217;-77
2023/07/07 00:14:24;;;;;;;4.30;3.10;;;;;;;17.06;67.66;98320.72;4995667;28;20287;-77
2023/07/07 00:16:50;;;;;;;2.97;2.50;;;;;;;16.97;68.73;98316.06;4995448;28;20230;-77
2023/07/07 00:19:17;;;;;;;3.40;2.60;;;;;;;16.83;69.71;98321.00;4994687;28;20229;-77
2023/07/07 00:21:44;;;;;;;3.67;2.60;;;;;;;16.75;72.75;98318.78;4994399;28;20570;-77
2023/07/07 00:24:10;;;;;;;3.83;2.70;;;;;;;16.70;72.04;98323.28;4994605;28;20203;-77
2023/07/07 00:26:37;;;;;;;5.27;3.00;;;;;;;16.61;70.83;98324.78;4994111;28;20234;-77
2023/07/07 00:29:03;;;;;;;5.03;3.13;;;;;;;16.62;71.75;98327.22;4994063;28;20663;-77
2023/07/07 00:31:30;;;;;;;4.70;3.30;;;;;;;16.55;72.67;98331.16;4995429;28;20576;-77
2023/07/07 00:33:57;;;;;;;5.33;3.50;;;;;;;16.48;71.46;98331.34;4995569;28;20207;-77
2023/07/07 00:36:24;;;;;;;5.03;2.97;;;;;;;16.56;71.03;98322.03;4994594;28;20223;-77
2023/07/07 00:38:51;;;;;;;5.60;2.93;;;;;;;16.58;70.97;98320.72;4994301;28;20701;-77
2023/07/07 00:41:18;;;;;;;3.47;2.90;;;;;;;16.54;70.77;98319.59;4994249;28;20302;-77
2023/07/07 00:44:11;;;;;;;3.30;3.00;;;;;;;16.45;72.19;98322.97;4994559;28;20247;-77
2023/07/07 00:46:38;;;;;;;4.70;3.07;;;;;;;16.32;73.24;98315.25;4994152;28;20231;-77
2023/07/07 00:49:15;;;;;;;3.80;2.60;;;;;;;16.23;73.12;98325.59;4993940;28;20230;-77
2023/07/07 00:51:48;;;;;;;5.70;2.93;;;;;;;16.27;72.81;98328.59;4994217;28;20274;-77
2023/07/07 00:54:19;;;;;;;3.03;2.60;;;;;;;16.20;73.53;98328.78;4993836;28;20666;-77
2023/07/07 00:56:50;;;;;;;3.47;3.17;;;;;;;16.21;73.61;98318.88;4994331;28;20239;-77
2023/07/07 00:59:24;;;;;;;3.67;2.67;;;;;;;16.20;72.38;98318.03;4993823;28;20219;-77
2023/07/07 01:01:55;;;;;;;4.30;2.87;;;;;;;16.06;74.28;98334.75;4994270;28;20214;-77
2023/07/07 01:04:23;;;;;;;3.57;2.50;;;;;;;15.99;74.03;98332.25;4994163;28;20203;-77
2023/07/07 01:06:54;;;;;;;3.90;2.93;;;;;;;15.92;75.82;98333.50;4993871;28;20227;-77
2023/07/07 01:09:21;;;;;;;3.00;2.57;;;;;;;15.88;75.51;98341.19;4997436;28;20195;-77
2023/07/07 01:11:48;;;;;;;3.93;2.50;;;;;;;16.04;74.04;98337.69;4999433;28;20211;-77
2023/07/07 01:14:20;;;;;;;3.23;2.70;;;;;;;16.08;74.41;98341.50;4998582;28;20208;-77
2023/07/07 01:17:05;;;;;;;3.67;2.87;;;;;;;16.00;73.42;98344.59;4998996;28;20227;-77
2023/07/07 01:19:49;;;;;;;3.13;2.70;;;;;;;15.83;75.02;98343.81;4997892;28;20214;-77
2023/07/07 01:22:46;;;;;;;4.33;2.90;;;;;;;15.78;76.60;98350.97;4997363;28;20218;-77
2023/07/07 01:25:25;;;;;;;5.10;3.07;;;;;;;15.79;76.35;98350.72;4997388;28;20223;-77
2023/07/07 01:28:36;;;;;;;3.20;2.90;;;;;;;15.71;76.58;98347.63;4996290;28;20231;-77
2023/07/07 01:31:08;;;;;;;3.23;2.93;;;;;;;15.71;75.90;98342.28;4997236;28;20196;-77
2023/07/07 01:33:36;;;;;;;4.43;3.13;;;;;;;15.70;76.44;98341.44;4996983;28;20564;-77
2023/07/07 01:36:02;;;;;;;3.27;2.70;;;;;;;15.68;76.90;98342.75;4997008;28;20741;-77
2023/07/07 01:38:41;;;;;;;4.63;3.10;;;;;;;15.55;78.40;98338.53;4997165;28;20231;-77
2023/07/07 01:41:21;;;;;;;3.70;2.93;;;;;;;15.72;76.00;98334.00;4997032;28;20662;-77
2023/07/07 01:44:03;;;;;;;3.40;2.90;;;;;;;15.68;76.75;98338.22;4996923;28;20190;-77
2023/07/07 01:46:36;;;;;;;3.60;2.70;;;;;;;15.57;79.16;98339.13;4996969;28;20230;-77
2023/07/07 01:49:16;;;;;;;3.87;2.93;;;;;;;15.56;78.12;98340.16;4995937;28;20198;-77
2023/07/07 01:52:14;;;;;;;3.70;2.77;;;;;;;15.48;77.91;98348.63;4995806;28;20195;-77
2023/07/07 01:54:46;;;;;;;3.87;2.70;;;;;;;15.44;77.99;98335.94;4996906;28;20224;-77
2023/07/07 01:57:14;;;;;;;3.63;2.90;;;;;;;15.46;78.89;98342.66;4980001;28;20231;-77
2023/07/07 01:59:43;;;;;;;3.77;2.70;;;;;;;15.47;79.46;98338.13;4996614;28;20227;-77
2023/07/07 02:02:10;;;;;;;4.13;3.10;;;;;;;15.43;80.45;98343.16;4996632;28;20207;-77
2023/07/07 02:04:36;;;;;;;4.23;2.90;;;;;;;15.37;81.37;98335.28;4996542;28;20678;-77
2023/07/07 02:07:03;;;;;;;3.33;2.67;;;;;;;15.39;81.22;98342.03;4996578;28;20238;-77
2023/07/07 02:09:29;;;;;;;3.20;2.90;;;;;;;15.37;82.16;98335.28;4996903;28;20294;-77
2023/07/07 02:11:55;;;;;;;3.57;3.00;;;;;;;15.37;80.48;98337.97;4997367;28;20207;-77
2023/07/07 02:14:22;;;;;;;6.60;3.03;;;;;;;15.31;81.64;98336.22;4997450;28;20207;-77
2023/07/07 02:16:49;;;;;;;4.97;3.10;;;;;;;15.31;82.14;98334.34;4997340;28;20733;-77
2023/07/07 02:19:16;;;;;;;3.67;3.03;;;;;;;15.26;82.21;98331.59;4995337;28;20227;-77
2023/07/07 02:21:43;;;;;;;4.13;3.33;;;;;;;15.24;83.23;98333.69;4995778;28;20691;-78
2023/07/07 02:24:09;;;;;;;3.53;3.10;;;;;;;15.22;82.17;98335.81;4996489;28;20573;-78
2023/07/07 02:26:36;;;;;;;4.17;2.90;;;;;;;15.21;83.00;98331.50;4996554;28;20231;-78
2023/07/07 02:29:02;;;;;;;4.30;3.17;;;;;;;15.24;83.27;98333.69;4996198;28;20666;-78
2023/07/07 02:31:29;;;;;;;2.97;2.73;;;;;;;15.19;83.51;98336.28;4996500;28;20215;-77
2023/07/07 02:33:55;;;;;;;3.10;2.80;;;;;;;15.15;84.25;98337.00;4996127;28;20207;-77
2023/07/07 02:36:24;;;;;;;4.57;2.80;;;;;;;15.16;84.02;98333.28;4995801;28;20714;-78
2023/07/07 02:38:52;;;;;;;3.23;2.70;;;;;;;15.18;83.25;98329.31;4995773;28;20579;-78
2023/07/07 02:41:19;;;;;;;5.00;3.10;;;;;;;15.26;83.68;98336.94;4995591;28;20678;-77
2023/07/07 02:43:45;;;;;;;2.90;2.60;;;;;;;15.18;85.07;98325.81;4995669;28;20215;-78
2023/07/07 02:46:12;;;;;;;3.17;2.87;;;;;;;15.20;83.88;98329.84;4995683;28;20734;-78
2023/07/07 02:48:38;;;;;;;4.07;2.87;;;;;;;15.13;85.08;98331.06;4996052;28;20211;-78
2023/07/07 02:51:06;;;;;;;3.23;2.93;;;;;;;15.09;84.82;98330.75;4996549;28;20215;-78
2023/07/07 02:53:36;;;;;;;4.77;3.20;;;;;;;15.04;87.12;98329.84;4995995;28;20566;-78
2023/07/07 02:56:03;;;;;;;4.63;2.90;;;;;;;15.07;88.89;98330.16;4995935;28;20233;-78
2023/07/07 02:58:29;;;;;;;4.37;3.10;;;;;;;15.08;85.88;98322.94;4995659;28;20226;-78
2023/07/07 03:01:09;;;;;;;6.53;3.33;;;;;;;15.02;87.18;98329.28;4995600;28;20218;-78
2023/07/07 03:03:36;;;;;;;4.00;3.00;;;;;;;14.94;88.30;98333.16;4995479;28;20195;-78
2023/07/07 03:06:04;;;;;;;4.83;3.50;;;;;;;14.96;88.95;98330.22;4995419;28;20591;-78
2023/07/07 03:08:30;;;;;;;5.40;3.23;;;;;;;14.97;88.01;98321.94;4995612;28;20295;-78
2023/07/07 03:10:57;;;;;;;4.47;3.43;;;;;;;14.97;88.13;98321.16;4996558;28;20214;-77
2023/07/07 03:13:23;;;;;;;7.20;3.77;;;;;;;14.98;88.39;98328.94;4996710;28;20210;-78
2023/07/07 03:15:49;;;;;;;5.37;3.30;;;;;;;14.94;89.00;98332.34;4996979;28;21842;-78
2023/07/07 03:18:16;;;;;;;4.73;3.40;;;;;;;14.95;91.05;98340.13;4996428;28;20217;-77
2023/07/07 03:20:49;;;;;;;4.60;3.50;;;;;;;14.99;90.09;98343.97;4995054;28;20640;-77
2023/07/07 03:23:16;;;;;;;7.77;3.53;;;;;;;14.95;89.50;98347.34;4996657;28;20207;-77
2023/07/07 03:25:42;;;;;;;6.00;3.30;;;;;;;14.81;91.37;98354.03;4996101;28;20207;-77
2023/07/07 03:28:09;;;;;;;6.43;3.80;;;;;;;14.89;92.60;98348.31;4996129;28;20576;-78
2023/07/07 03:30:35;;;;;;;8.07;3.40;;;;;;;14.81;92.28;98348.69;4996055;28;20211;-78
2023/07/07 03:33:01;;;;;;;4.17;3.43;;;;;;;14.85;92.03;98355.19;4996211;28;20290;-78
2023/07/07 03:35:29;;;;;;;5.03;3.47;;;;;;;14.80;92.18;98358.59;4995031;28;20218;-78
2023/07/07 03:37:55;;;;;;;5.07;3.10;;;;;;;14.83;93.36;98359.97;4994601;28;20679;-77
2023/07/07 03:40:21;;;;;;;4.90;3.80;;;;;;;14.82;92.56;98361.81;4994781;28;20581;-78
2023/07/07 03:42:48;;;;;;;5.97;3.70;;;;;;;14.77;93.07;98372.44;4994430;28;20587;-78
2023/07/07 03:45:16;;;;;;;5.07;3.63;;;;;;;14.88;93.48;98366.22;4994617;28;20207;-78
2023/07/07 03:47:45;;;;;;;3.53;3.10;;;;;;;14.83;93.08;98368.00;4994158;28;20234;-78
2023/07/07 03:50:11;;;;;;;5.73;3.67;;;;;;;14.89;92.88;98375.91;4994866;28;20203;-78
2023/07/07 03:52:37;;;;;;;6.37;3.77;;;;;;;14.85;93.55;98376.59;4995087;28;20218;-78
2023/07/07 03:55:04;;;;;;;5.30;3.80;;;;;;;14.93;93.26;98379.69;4994740;28;20211;-78
2023/07/07 03:57:30;;;;;;;8.10;3.60;;;;;;;14.99;94.26;98381.44;4994763;28;20235;-78
2023/07/07 03:59:57;;;;;;;5.43;3.80;;;;;;;15.03;91.90;98382.59;4994575;28;20231;-78
2023/07/07 04:02:23;;;;;;;5.87;3.70;;;;;;;15.08;91.21;98382.69;4994654;28;20230;-78
2023/07/07 04:04:49;;;;;;;4.07;3.40;;;;;;;15.00;91.63;98388.41;4994783;28;20574;-78
2023/07/07 04:07:16;;;;;;;4.03;3.60;;;;;;;15.04;90.96;98392.25;4994347;28;20246;-78
2023/07/07 04:09:42;;;;;;;6.17;4.07;;;;;;;15.04;92.01;98388.75;4991401;28;20231;-78
2023/07/07 04:12:10;;;;;;;6.83;3.70;;;;;;;15.11;92.25;98379.50;4992558;28;20238;-78
2023/07/07 04:14:36;;;;;;;6.30;4.00;;;;;;;15.07;93.70;98380.25;4995880;28;20217;-78
2023/07/07 04:17:03;;;;;;;4.80;3.90;;;;;;;15.07;94.30;98380.25;4995488;28;20227;-78
2023/07/07 04:19:30;;;;;;;6.27;4.20;;;;;;;15.17;95.12;98389.28;4994074;28;20235;-77
2023/07/07 04:21:57;;;;;;;8.93;4.80;;;;;;;15.28;95.23;98388.41;4994530;28;20211;-78
2023/07/07 04:24:23;;;;;;;6.70;4.60;;;;;;;15.34;94.06;98376.75;4994049;28;20293;-78
2023/07/07 04:26:50;;;;;;;6.63;4.30;;;;;;;15.41;93.28;98374.75;4992648;28;20631;-78
2023/07/07 04:29:17;;;;;;;6.80;4.83;;;;;;;15.47;93.21;98378.31;5002099;28;20285;-78
2023/07/07 04:31:45;;;;;;;7.87;4.77;;;;;;;15.52;93.03;98383.78;4991592;28;20290;-77
2023/07/07 04:34:16;;;;;;;6.53;4.77;;;;;;;15.58;92.83;98380.94;4992290;28;20655;-78
2023/07/07 04:36:42;;;;;;;8.67;4.93;;;;;;;15.59;93.35;98387.91;5012144;28;20230;-78
2023/07/07 04:39:09;;;;;;;7.20;4.73;;;;;;;15.65;92.85;98383.47;5006671;28;20213;-78
2023/07/07 04:41:35;;;;;;;6.17;4.83;;;;;;;15.68;93.44;98399.03;4992081;28;20243;-78
2023/07/07 04:44:02;;;;;;;6.17;4.87;;;;;;;15.69;93.86;98393.44;4996318;28;20214;-77
2023/07/07 04:46:35;;;;;;;9.07;5.27;;;;;;;15.72;92.46;98392.13;4996794;28;20313;-77
2023/07/07 04:49:06;;;;;;;8.40;5.20;;;;;;;15.78;91.36;98386.63;4996899;28;20531;-77
2023/07/07 04:51:33;;;;;;;5.93;5.03;;;;;;;15.82;90.97;98387.75;4996124;28;20295;-78
2023/07/07 04:54:00;;;;;;;7.87;5.17;;;;;;;15.86;92.08;98399.63;5000499;28;20281;-78
2023/07/07 04:56:26;;;;;;;7.50;5.00;;;;;;;15.94;90.37;98393.88;4997377;28;20227;-77
2023/07/07 04:58:54;;;;;;;8.30;5.57;;;;;;;16.09;88.70;98402.13;4996878;28;20207;-78
2023/07/07 05:01:26;;;;;;;8.87;5.63;;;;;;;16.15;88.11;98395.78;4996049;28;20565;-78
2023/07/07 05:03:55;;;;;;;6.47;5.37;;;;;;;16.13;88.18;98407.81;4995537;28;20209;-77
2023/07/07 05:06:23;;;;;;;8.10;5.33;;;;;;;16.22;87.46;98399.13;4996074;28;20234;-77
2023/07/07 05:08:50;;;;;;;12.27;5.40;;;;;;;16.35;87.72;98397.94;4996354;28;20218;-78
2023/07/07 05:11:19;;;;;;;7.13;5.80;;;;;;;16.51;87.59;98399.81;4998932;28;20235;-77
2023/07/07 05:13:48;;;;;;;9.67;6.27;;;;;;;16.87;84.97;98396.53;4998571;28;20700;-77
2023/07/07 05:16:17;;;;;;;8.60;5.30;;;;;;;17.22;82.12;98396.91;4998523;28;20223;-77
2023/07/07 05:18:43;;;;;;;8.07;5.07;;;;;;;17.43;80.11;98399.59;4998200;28;20218;-77
2023/07/07 05:21:12;;;;;;;6.87;5.00;;;;;;;17.66;77.31;98393.91;4997499;28;20208;-78
2023/07/07 05:23:39;;;;;;;8.57;5.27;;;;;;;18.17;74.31;98395.91;4997040;28;20555;-78
2023/07/07 05:26:06;;;;;;;9.77;5.60;;;;;;;18.63;72.33;98402.38;4997922;28;20223;-78
2023/07/07 05:28:33;;;;;;;6.47;5.17;;;;;;;19.17;69.84;98388.34;4997522;28;20219;-78
2023/07/07 05:31:00;;;;;;;11.63;5.60;;;;;;;19.42;67.99;98404.59;4997410;28;20200;-78
2023/07/07 05:33:28;;;;;;;8.87;5.07;;;;;;;19.13;68.18;98403.41;4997269;28;20699;-78
2023/07/07 05:35:59;;;;;;;5.93;4.67;;;;;;;18.70;67.67;98411.88;4998194;28;20236;-78
2023/07/07 05:38:26;;;;;;;10.47;5.43;;;;;;;18.38;68.74;98411.16;4997795;28;20215;-78
2023/07/07 05:40:54;;;;;;;7.63;4.90;;;;;;;18.31;69.63;98404.31;4997285;28;20590;-78
2023/07/07 05:43:22;;;;;;;8.70;4.93;;;;;;;18.20;70.17;98397.28;4996901;28;20207;-78
2023/07/07 05:45:54;;;;;;;8.83;5.20;;;;;;;18.20;71.28;98400.78;4996907;28;20211;-77
2023/07/07 05:48:21;;;;;;;6.43;4.70;;;;;;;18.24;70.48;98401.84;4996950;28;20195;-78
2023/07/07 05:50:47;;;;;;;10.47;5.43;;;;;;;18.20;69.94;98403.47;4997596;28;20207;-78
2023/07/07 05:53:13;;;;;;;6.83;4.80;;;;;;;18.29;70.30;98401.91;4996787;28;20208;-78
2023/07/07 05:55:46;;;;;;;9.47;5.23;;;;;;;18.25;69.60;98405.38;4996748;28;20751;-78
2023/07/07 05:58:13;;;;;;;5.67;5.07;;;;;;;18.31;70.39;98401.63;4997103;28;20223;-78
2023/07/07 06:00:39;;;;;;;8.07;5.43;;;;;;;18.37;70.04;98398.75;4997706;28;20227;-78
2023/07/07 06:03:05;;;;;;;10.23;5.60;;;;;;;18.45;69.47;98403.66;4996578;28;20218;-78
2023/07/07 06:05:32;;;;;;;10.40;5.63;;;;;;;18.49;69.70;98410.13;4996605;28;20671;-78
2023/07/07 06:07:59;;;;;;;9.00;5.47;;;;;;;18.58;69.64;98413.13;4996680;28;20218;-78
2023/07/07 06:10:25;;;;;;;9.93;5.40;;;;;;;18.56;68.46;98413.44;4997987;28;20207;-78
2023/07/07 06:12:52;;;;;;;9.60;6.00;;;;;;;18.69;68.57;98412.13;4997626;28;20237;-78
2023/07/07 06:15:19;;;;;;;10.30;5.53;;;;;;;18.81;67.96;98413.53;4997452;28;20215;-78
2023/07/07 06:17:45;;;;;;;9.40;5.63;;;;;;;18.82;68.41;98412.44;4997981;28;20231;-78
2023/07/07 06:20:14;;;;;;;12.43;5.50;;;;;;;18.94;67.21;98415.75;4996329;28;20235;-78
2023/07/07 06:22:40;;;;;;;11.87;5.80;;;;;;;18.98;68.23;98410.63;4997328;28;20214;-78
2023/07/07 06:25:07;;;;;;;11.77;5.83;;;;;;;19.05;67.07;98422.00;4997505;28;20203;-78
2023/07/07 06:27:33;;;;;;;8.67;5.13;;;;;;;18.84;65.13;98421.09;4996946;28;20253;-78
2023/07/07 06:29:59;;;;;;;8.27;4.87;;;;;;;19.00;65.37;98420.06;4995655;28;20206;-78
2023/07/07 06:32:26;;;;;;;7.03;5.10;;;;;;;19.09;65.78;98426.56;4995901;28;20203;-74
2023/07/07 06:34:52;;;;;;;13.20;9.53;;;;;;;19.18;64.53;98419.59;4993848;28;20258;-75
2023/07/07 06:37:19;;;;;;;8.33;5.17;;;;;;;19.25;64.05;98424.78;4992818;28;20231;-76
2023/07/07 06:39:45;;;;;;;10.50;5.10;;;;;;;19.29;65.63;98425.88;4993191;28;20786;-76
2023/07/07 06:42:11;;;;;;;6.47;5.00;;;;;;;19.42;64.49;98431.56;4993370;28;20844;-74
2023/07/07 06:44:40;;;;;;;8.83;5.00;;;;;;;19.43;63.92;98427.81;4993543;28;20207;-75
2023/07/07 06:47:07;;;;;;;6.23;4.70;;;;;;;19.57;63.42;98428.09;4993462;28;20231;-75
2023/07/07 06:49:33;;;;;;;9.77;5.00;;;;;;;19.75;62.78;98432.97;4993470;28;20214;-74
2023/07/07 06:51:59;;;;;;;6.87;5.57;;;;;;;19.77;62.38;98433.53;4993672;28;20211;-75
2023/07/07 06:54:26;;;;;;;6.33;4.00;;;;;;;19.89;62.07;98431.34;4995190;28;20211;-74
2023/07/07 06:56:52;;;;;;;7.37;5.13;;;;;;;20.20;61.26;98435.72;4995086;28;20226;-73
2023/07/07 06:59:18;;;;;;;11.90;5.30;;;;;;;20.18;61.10;98429.78;4994652;28;20214;-72
2023/07/07 07:01:45;;;;;;;5.93;4.73;;;;;;;20.22;62.11;98435.44;4995110;28;20319;-72
2023/07/07 07:04:11;;;;;;;8.07;4.90;;;;;;;20.09;61.64;98436.00;4995051;28;20242;-73
2023/07/07 07:06:38;;;;;;;5.60;4.50;;;;;;;20.22;62.15;98436.25;4994257;28;20231;-73
2023/07/07 07:09:04;;;;;;;5.80;4.57;;;;;;;20.18;61.76;98437.88;4995045;28;20213;-73
2023/07/07 07:11:30;;;;;;;9.77;6.63;;;;;;;20.38;60.72;98434.34;4995301;28;20203;-73
2023/07/07 07:13:57;;;;;;;7.50;4.80;;;;;;;20.51;61.59;98439.19;4994590;28;20203;-73
2023/07/07 07:16:23;;;;;;;9.03;4.83;;;;;;;20.42;60.75;98440.81;4994950;28;20254;-72
2023/07/07 07:18:49;;;;;;;7.70;4.50;;;;;;;20.69;61.13;98441.31;4995075;28;20211;-73
2023/07/07 07:21:16;;;;;;;6.17;4.53;;;;;;;20.87;59.90;98440.72;4994730;28;20307;-73
2023/07/07 07:23:42;;;;;;;7.77;4.40;;;;;;;20.82;59.76;98438.84;4994788;28;20207;-73
2023/07/07 07:26:09;;;;;;;6.77;4.37;;;;;;;20.89;59.65;98442.06;4994728;28;20242;-73
2023/07/07 07:28:35;;;;;;;5.87;4.37;;;;;;;21.03;60.00;98439.63;4994600;28;20207;-73
2023/07/07 07:31:02;;;;;;;5.00;4.37;;;;;;;21.59;57.24;98444.47;4994471;28;20204;-73
2023/07/07 07:33:28;;;;;;;8.87;4.70;;;;;;;21.62;58.12;98443.09;4994461;28;20682;-73
2023/07/07 07:35:54;;;;;;;6.67;4.80;;;;;;;21.66;57.61;98444.16;4994028;28;20231;-73
2023/07/07 07:38:21;;;;;;;7.37;4.50;;;;;;;21.92;57.92;98438.31;4994261;28;20675;-73
2023/07/07 07:40:51;;;;;;;38.67;31.77;;;;;;;21.98;55.72;98441.78;4994505;28;20234;-73
2023/07/07 07:43:17;;;;;;;10.00;7.67;;;;;;;22.06;55.73;98441.19;4994500;28;20214;-73
2023/07/07 07:45:43;;;;;;;8.87;7.20;;;;;;;22.17;55.42;98434.59;4995050;28;20211;-73
2023/07/07 07:48:10;;;;;;;13.40;12.00;;;;;;;22.20;56.02;98439.47;4994596;28;20217;-73
2023/07/07 07:50:36;;;;;;;14.95;12.45;;;;;;;22.30;54.78;98436.66;4996990;28;20194;-73
2023/07/07 07:53:02;;;;;;;8.07;6.50;;;;;;;22.26;54.41;98432.88;4994180;28;20203;-73
2023/07/07 07:55:29;;;;;;;5.53;4.53;;;;;;;22.34;56.05;98438.50;4993860;28;20210;-73
2023/07/07 07:57:55;;;;;;;7.27;4.43;;;;;;;22.49;55.29;98426.75;4993829;28;20231;-73
2023/07/07 08:00:22;;;;;;;7.78;4.68;;;;;;;22.56;54.56;98432.66;4993599;28;20226;-73
2023/07/07 08:02:50;;;;;;;5.78;4.72;;;;;;;22.87;53.38;98429.31;4994584;28;20211;-72
2023/07/07 08:05:16;;;;;;;8.48;4.30;;;;;;;22.92;52.77;98431.16;4994384;28;20246;-72
2023/07/07 08:07:43;;;;;;;9.32;4.30;;;;;;;22.91;53.85;98435.78;4994165;28;20230;-72
2023/07/07 08:10:10;;;;;;;13.90;10.80;;;;;;;22.87;53.04;98431.19;4994049;28;20675;-72
2023/07/07 08:12:36;;;;;;;7.35;4.15;;;;;;;23.01;52.07;98437.56;4993918;28;20277;-72
2023/07/07 08:15:04;;;;;;;7.28;5.40;;;;;;;23.27;51.36;98431.56;4993854;28;20195;-72
2023/07/07 08:17:30;;;;;;;9.05;6.53;;;;;;;23.50;50.39;98424.44;4993462;28;20744;-72
2023/07/07 08:19:56;;;;;;;10.65;5.47;;;;;;;23.62;48.33;98433.78;4993248;28;20222;-72
2023/07/07 08:22:26;;;;;;;6.40;4.78;;;;;;;23.47;49.89;98427.78;4993709;28;20203;-72
2023/07/07 08:24:55;;;;;;;6.80;4.03;;;;;;;23.53;50.18;98429.31;4993392;28;20565;-72
2023/07/07 08:27:23;;;;;;;8.52;4.70;;;;;;;23.74;50.10;98428.72;4990819;28;20302;-72
2023/07/07 08:29:50;;;;;;;4.90;4.28;;;;;;;23.93;49.29;98429.53;4993998;28;20207;-72
2023/07/07 08:32:21;;;;;;;7.13;4.40;;;;;;;23.91;50.29;98428.22;4993673;28;20211;-72
2023/07/07 08:34:49;;;;;;;8.02;5.10;;;;;;;24.26;47.94;98438.50;4993708;28;20257;-72
2023/07/07 08:37:17;;;;;;;7.50;6.72;;;;;;;23.77;48.88;98435.47;4993929;28;20266;-72
2023/07/07 08:39:44;;;;;;;10.18;5.97;;;;;;;23.78;49.12;98437.09;4993845;28;20594;-72
2023/07/07 08:42:29;;;;;;;8.68;5.30;;;;;;;23.97;49.39;98432.47;4993865;28;20203;-72
2023/07/07 08:44:58;;;;;;;8.35;7.10;;;;;;;23.96;49.68;98436.28;4993899;28;20195;-72
2023/07/07 08:47:32;;;;;;;6.32;4.10;;;;;;;24.26;47.85;98424.91;4993938;28;20250;-72
2023/07/07 08:50:06;;;;;;;11.80;7.13;;;;;;;24.30;48.53;98425.94;4993893;28;20218;-72
2023/07/07 08:53:03;;;;;;;5.30;4.80;;;;;;;24.67;47.58;98428.56;4993887;28;20206;-72
2023/07/07 08:55:38;;;;;;;7.50;5.57;;;;;;;24.75;47.21;98423.25;4994046;28;20196;-72
2023/07/07 08:58:12;;;;;;;5.07;4.35;;;;;;;24.67;46.65;98417.69;4993574;28;20201;-72
2023/07/07 09:00:47;;;;;;;8.48;4.80;;;;;;;24.95;47.16;98424.75;4993830;28;20215;-77
2023/07/07 09:03:39;;;;;;;5.82;4.88;;;;;;;25.02;46.09;98419.72;4995798;28;20195;-77
2023/07/07 09:06:16;;;;;;;8.80;5.30;;;;;;;25.14;45.53;98420.81;4990274;28;20227;-77
2023/07/07 09:09:13;;;;;;;6.15;4.50;;;;;;;25.30;45.60;98410.44;4992293;28;20557;-77
2023/07/07 09:12:15;;;;;;;7.20;4.47;;;;;;;25.44;45.68;98413.94;4993184;28;20213;-77
2023/07/07 09:14:43;;;;;;;7.60;5.18;;;;;;;25.75;44.85;98410.22;4975478;28;20570;-77
2023/07/07 09:17:22;;;;;;;6.10;5.00;;;;;;;25.96;42.98;98413.31;4992559;28;20235;-77
2023/07/07 09:19:51;;;;;;;5.18;4.60;;;;;;;26.06;42.91;98416.56;4992562;28;20195;-77
2023/07/07 09:22:46;;;;;;;6.82;4.95;;;;;;;26.13;41.64;98416.13;4993755;28;20219;-77
2023/07/07 09:25:25;;;;;;;8.93;5.32;;;;;;;26.37;41.13;98411.19;4985229;28;20208;-77
2023/07/07 09:28:09;;;;;;;7.45;4.72;;;;;;;26.41;40.24;98404.78;4992712;28;20719;-74
2023/07/07 09:30:42;;;;;;;5.55;4.75;;;;;;;26.83;39.58;98400.69;4996988;28;20187;-73
2023/07/07 09:33:13;;;;;;;5.05;4.55;;;;;;;26.75;37.53;98404.19;4996941;28;20188;-73
2023/07/07 09:35:47;;;;;;;6.07;5.40;;;;;;;26.87;37.66;98410.63;4996870;28;20214;-73
2023/07/07 09:38:50;;;;;;;6.15;5.50;;;;;;;27.07;34.70;98392.88;4997471;28;20219;-73
2023/07/07 09:41:32;;;;;;;5.60;5.07;;;;;;;27.05;35.88;98392.41;4996577;28;20218;-73
2023/07/07 09:44:20;;;;;;;6.75;4.95;;;;;;;27.05;35.83;98397.88;4996648;28;20202;-73
2023/07/07 09:47:12;;;;;;;6.50;5.22;;;;;;;26.93;35.05;98389.47;4996528;28;20219;-74
2023/07/07 09:50:02;;;;;;;6.20;5.60;;;;;;;26.96;33.68;98395.09;4995737;28;20192;-74
2023/07/07 09:52:50;;;;;;;5.40;4.90;;;;;;;27.52;34.21;98397.00;4996389;28;20196;-74
2023/07/07 09:55:30;;;;;;;5.85;5.32;;;;;;;27.38;32.04;98393.63;4996402;28;20192;-73
2023/07/07 09:58:19;;;;;;;6.97;5.60;;;;;;;27.37;32.54;98391.22;4996334;28;20199;-73
2023/07/07 10:00:50;;;;;;;6.88;6.00;;;;;;;27.42;31.96;98393.78;4996154;28;20222;-73
2023/07/07 10:03:45;;;;;;;5.90;5.15;;;;;;;27.57;32.21;98390.59;4996398;28;20191;-73
2023/07/07 10:06:26;;;;;;;6.90;5.97;;;;;;;27.55;32.28;98388.19;4995275;28;20227;-73
2023/07/07 10:08:52;;;;;;;6.40;5.78;;;;;;;27.81;32.16;98378.06;4995143;28;20195;-73
2023/07/07 10:11:31;;;;;;;6.80;6.20;;;;;;;27.67;33.26;98384.81;4996198;28;20203;-73
2023/07/07 10:13:58;;;;;;;7.13;6.43;;;;;;;27.59;33.13;98382.88;4995871;28;20563;-73
2023/07/07 10:16:36;;;;;;;6.22;5.63;;;;;;;27.49;33.41;98383.19;4995504;28;20231;-73
2023/07/07 10:19:07;;;;;;;7.28;6.35;;;;;;;27.77;32.84;98385.31;4979661;28;20191;-73
2023/07/07 10:21:34;;;;;;;8.60;6.63;;;;;;;27.81;32.86;98372.63;4995483;28;20582;-73
2023/07/07 10:24:00;;;;;;;7.32;6.45;;;;;;;28.11;31.94;98368.88;4995460;28;20215;-74
2023/07/07 10:26:27;;;;;;;8.80;7.22;;;;;;;28.35;31.45;98363.69;4995492;28;20223;-74
2023/07/07 10:28:58;;;;;;;8.48;6.75;;;;;;;28.26;30.96;98365.63;4995897;28;20215;-74
2023/07/07 10:31:26;;;;;;;7.43;6.72;;;;;;;27.96;31.66;98369.41;4995346;28;20647;-74
2023/07/07 10:33:58;;;;;;;8.15;6.05;;;;;;;28.12;32.06;98375.97;4995752;28;20210;-74
2023/07/07 10:36:31;;;;;;;7.93;6.80;;;;;;;28.22;32.24;98364.66;4995281;28;20599;-73
2023/07/07 10:38:58;;;;;;;7.35;6.60;;;;;;;28.21;32.12;98363.06;4995532;28;20196;-73
2023/07/07 10:41:26;;;;;;;9.10;7.18;;;;;;;28.73;30.98;98366.47;4994346;28;20235;-73
2023/07/07 10:43:54;;;;;;;10.45;8.48;;;;;;;28.73;29.49;98370.03;4995247;28;20218;-73
2023/07/07 10:46:20;;;;;;;10.45;9.50;;;;;;;28.72;28.46;98373.91;4995346;28;20235;-73
2023/07/07 10:48:47;;;;;;;9.45;8.10;;;;;;;28.59;29.58;98369.44;4995252;28;20218;-73
2023/07/07 10:51:30;;;;;;;9.20;8.27;;;;;;;28.63;29.27;98370.38;4995356;28;20204;-73
2023/07/07 10:54:13;;;;;;;9.23;8.20;;;;;;;28.93;29.09;98361.06;4993766;28;20196;-73
2023/07/07 10:57:28;;;;;;;11.75;8.95;;;;;;;28.56;29.54;98364.59;4995126;28;20238;-74
2023/07/07 11:00:07;;;;;;;11.45;10.30;;;;;;;28.67;28.74;98356.84;4994346;28;20204;-74
2023/07/07 11:02:55;;;;;;;10.60;9.60;;;;;;;28.74;28.34;98357.94;4994106;28;20670;-74
2023/07/07 11:06:05;;;;;;;10.75;9.73;;;;;;;29.12;30.43;98363.41;4995572;28;20195;-74
2023/07/07 11:08:49;;;;;;;11.35;9.68;;;;;;;29.23;28.68;98357.22;4973241;28;20212;-73
2023/07/07 11:11:28;;;;;;;9.68;8.77;;;;;;;28.91;29.14;98355.13;4957186;28;20703;-73
2023/07/07 11:14:32;;;;;;;10.50;9.40;;;;;;;29.21;29.35;98351.25;4988371;28;20207;-73
2023/07/07 11:17:30;;;;;;;8.70;7.85;;;;;;;29.26;29.23;98353.00;4994846;28;20229;-73
2023/07/07 11:20:05;;;;;;;9.90;8.20;;;;;;;28.98;29.49;98354.59;4994313;28;20211;-73
2023/07/07 11:22:31;;;;;;;8.48;7.68;;;;;;;28.47;29.74;98339.22;4994810;28;20261;-73
2023/07/07 11:25:37;;;;;;;10.93;8.43;;;;;;;28.47;30.83;98338.41;4995052;28;20207;-73
2023/07/07 11:28:17;;;;;;;9.32;8.43;;;;;;;28.88;28.78;98339.34;4986075;28;20670;-73
2023/07/07 11:31:19;;;;;;;9.23;8.25;;;;;;;28.73;29.04;98344.56;4993516;28;20188;-73
2023/07/07 11:34:07;;;;;;;9.18;8.27;;;;;;;28.84;28.98;98340.34;4987745;28;20206;-73
2023/07/07 11:36:41;;;;;;;9.70;8.70;;;;;;;29.16;28.50;98342.44;4994388;28;20235;-73
2023/07/07 11:39:39;;;;;;;9.73;8.80;;;;;;;29.16;28.84;98336.97;4994013;28;20422;-73
2023/07/07 11:42:46;;;;;;;9.52;8.60;;;;;;;29.14;29.06;98337.28;4982314;28;20694;-73
2023/07/07 11:45:35;;;;;;;9.35;8.38;;;;;;;29.27;27.78;98333.50;4977291;28;20211;-73
2023/07/07 11:48:24;;;;;;;11.00;8.43;;;;;;;29.43;27.63;98330.97;4994316;28;20196;-73
2023/07/07 11:50:53;;;;;;;10.35;8.88;;;;;;;28.97;27.54;98322.88;4993970;28;20187;-73
2023/07/07 11:53:44;;;;;;;8.95;8.05;;;;;;;29.10;28.23;98332.81;4994074;28;20207;-73